<?xml version='1.0' encoding='UTF-8'?><gpx version="1.1" creator="JPX - https://github.com/jenetics/jpx" xmlns="http://www.topografix.com/GPX/1/1"><trk><trkseg><trkpt lat="43.9045269" lon="12.8953765"><ele>7.999999999999999</ele><time>2026-04-01T16:24:23.139Z</time></trkpt><trkpt lat="43.9045763" lon="12.8953145"><ele>8.0</ele><time>2026-04-01T16:24:27.166Z</time></trkpt><trkpt lat="43.9046252" lon="12.8952518"><ele>8.0</ele><time>2026-04-01T16:24:32.175Z</time></trkpt><trkpt lat="43.9046567" lon="12.8951553"><ele>8.0</ele><time>2026-04-01T16:24:38.174Z</time></trkpt><trkpt lat="43.904674" lon="12.8950587"><ele>7.999999999999999</ele><time>2026-04-01T16:24:42.191Z</time></trkpt><trkpt lat="43.9046462" lon="12.8949536"><ele>8.0</ele><time>2026-04-01T16:24:46.181Z</time></trkpt><trkpt lat="43.9045791" lon="12.8948635"><ele>7.800000000000001</ele><time>2026-04-01T16:24:50.192Z</time></trkpt><trkpt lat="43.9044753" lon="12.8946841"><ele>7.6000000000000005</ele><time>2026-04-01T16:24:58.181Z</time></trkpt><trkpt lat="43.9044101" lon="12.8946075"><ele>7.3999999999999995</ele><time>2026-04-01T16:25:00.173Z</time></trkpt><trkpt lat="43.9043462" lon="12.894541"><ele>7.199999999999999</ele><time>2026-04-01T16:25:03.182Z</time></trkpt><trkpt lat="43.90429" lon="12.8944776"><ele>7.0</ele><time>2026-04-01T16:25:06.189Z</time></trkpt><trkpt lat="43.9042444" lon="12.8944069"><ele>6.857142857142857</ele><time>2026-04-01T16:25:09.192Z</time></trkpt><trkpt lat="43.9041959" lon="12.8943395"><ele>6.714285714285714</ele><time>2026-04-01T16:25:12.192Z</time></trkpt><trkpt lat="43.9041485" lon="12.8942803"><ele>6.571428571428571</ele><time>2026-04-01T16:25:15.178Z</time></trkpt><trkpt lat="43.9040927" lon="12.8942025"><ele>6.428571428571429</ele><time>2026-04-01T16:25:18.186Z</time></trkpt><trkpt lat="43.9040428" lon="12.8941384"><ele>6.285714285714286</ele><time>2026-04-01T16:25:21.2Z</time></trkpt><trkpt lat="43.9040009" lon="12.8940724"><ele>6.142857142857142</ele><time>2026-04-01T16:25:24.18Z</time></trkpt><trkpt lat="43.9039619" lon="12.8940021"><ele>6.0</ele><time>2026-04-01T16:25:27.181Z</time></trkpt><trkpt lat="43.9039132" lon="12.8939348"><ele>5.833333333333333</ele><time>2026-04-01T16:25:30.185Z</time></trkpt><trkpt lat="43.9038516" lon="12.8938704"><ele>5.666666666666667</ele><time>2026-04-01T16:25:33.184Z</time></trkpt><trkpt lat="43.9037935" lon="12.8938089"><ele>5.5</ele><time>2026-04-01T16:25:36.179Z</time></trkpt><trkpt lat="43.9037225" lon="12.8937474"><ele>5.333333333333334</ele><time>2026-04-01T16:25:40.167Z</time></trkpt><trkpt lat="43.9036499" lon="12.8936803"><ele>5.166666666666667</ele><time>2026-04-01T16:25:43.163Z</time></trkpt><trkpt lat="43.903591" lon="12.8935951"><ele>5.0</ele><time>2026-04-01T16:25:46.169Z</time></trkpt><trkpt lat="43.9035157" lon="12.893604"><ele>5.0</ele><time>2026-04-01T16:25:50.164Z</time></trkpt><trkpt lat="43.9034688" lon="12.8936766"><ele>5.0</ele><time>2026-04-01T16:25:53.185Z</time></trkpt><trkpt lat="43.9034262" lon="12.893746"><ele>5.0</ele><time>2026-04-01T16:25:56.173Z</time></trkpt><trkpt lat="43.903378" lon="12.8938352"><ele>5.0</ele><time>2026-04-01T16:26:00.167Z</time></trkpt><trkpt lat="43.9033211" lon="12.8939054"><ele>5.0</ele><time>2026-04-01T16:26:04.172Z</time></trkpt><trkpt lat="43.9032624" lon="12.8939599"><ele>5.0</ele><time>2026-04-01T16:26:08.17Z</time></trkpt><trkpt lat="43.9032037" lon="12.8940311"><ele>5.0</ele><time>2026-04-01T16:26:11.173Z</time></trkpt><trkpt lat="43.9031579" lon="12.8941167"><ele>4.714285714285714</ele><time>2026-04-01T16:26:14.168Z</time></trkpt><trkpt lat="43.9031039" lon="12.8941965"><ele>4.428571428571429</ele><time>2026-04-01T16:26:17.175Z</time></trkpt><trkpt lat="43.903048" lon="12.8942651"><ele>4.142857142857142</ele><time>2026-04-01T16:26:20.166Z</time></trkpt><trkpt lat="43.9030007" lon="12.8943444"><ele>3.8571428571428568</ele><time>2026-04-01T16:26:23.188Z</time></trkpt><trkpt lat="43.9029446" lon="12.8944126"><ele>3.571428571428571</ele><time>2026-04-01T16:26:26.169Z</time></trkpt><trkpt lat="43.9029015" lon="12.8945021"><ele>3.2857142857142856</ele><time>2026-04-01T16:26:29.168Z</time></trkpt><trkpt lat="43.9028658" lon="12.8945801"><ele>3.0</ele><time>2026-04-01T16:26:32.167Z</time></trkpt><trkpt lat="43.9028248" lon="12.8946756"><ele>2.8333333333333335</ele><time>2026-04-01T16:26:34.165Z</time></trkpt><trkpt lat="43.9027754" lon="12.8947763"><ele>2.6666666666666665</ele><time>2026-04-01T16:26:36.165Z</time></trkpt><trkpt lat="43.9027505" lon="12.8948594"><ele>2.5</ele><time>2026-04-01T16:26:38.169Z</time></trkpt><trkpt lat="43.9027775" lon="12.8949429"><ele>2.333333333333333</ele><time>2026-04-01T16:26:41.166Z</time></trkpt><trkpt lat="43.9028287" lon="12.8950254"><ele>2.1666666666666665</ele><time>2026-04-01T16:26:44.171Z</time></trkpt><trkpt lat="43.90288" lon="12.8951296"><ele>2.0</ele><time>2026-04-01T16:26:47.17Z</time></trkpt><trkpt lat="43.9029285" lon="12.8952306"><ele>2.5</ele><time>2026-04-01T16:26:50.17Z</time></trkpt><trkpt lat="43.9029929" lon="12.8953173"><ele>3.0</ele><time>2026-04-01T16:26:53.172Z</time></trkpt><trkpt lat="43.9030568" lon="12.8953661"><ele>3.5</ele><time>2026-04-01T16:26:56.163Z</time></trkpt><trkpt lat="43.9031291" lon="12.8954176"><ele>4.0</ele><time>2026-04-01T16:26:59.176Z</time></trkpt><trkpt lat="43.903192" lon="12.8954875"><ele>4.5</ele><time>2026-04-01T16:27:02.178Z</time></trkpt><trkpt lat="43.9032526" lon="12.8955543"><ele>5.0</ele><time>2026-04-01T16:27:05.177Z</time></trkpt><trkpt lat="43.9032963" lon="12.8956258"><ele>5.0</ele><time>2026-04-01T16:27:08.177Z</time></trkpt><trkpt lat="43.9033476" lon="12.8957139"><ele>5.0</ele><time>2026-04-01T16:27:12.17Z</time></trkpt><trkpt lat="43.9033898" lon="12.8957804"><ele>5.0</ele><time>2026-04-01T16:27:15.169Z</time></trkpt><trkpt lat="43.9034529" lon="12.8958548"><ele>5.0</ele><time>2026-04-01T16:27:18.165Z</time></trkpt><trkpt lat="43.9035107" lon="12.8959256"><ele>5.0</ele><time>2026-04-01T16:27:21.166Z</time></trkpt><trkpt lat="43.9035821" lon="12.8959769"><ele>5.0</ele><time>2026-04-01T16:27:24.174Z</time></trkpt><trkpt lat="43.9036562" lon="12.8960028"><ele>5.333333333333334</ele><time>2026-04-01T16:27:27.168Z</time></trkpt><trkpt lat="43.9037233" lon="12.896013"><ele>5.666666666666667</ele><time>2026-04-01T16:27:30.177Z</time></trkpt><trkpt lat="43.9038068" lon="12.8960006"><ele>6.0</ele><time>2026-04-01T16:27:34.175Z</time></trkpt><trkpt lat="43.9038877" lon="12.8960343"><ele>6.333333333333334</ele><time>2026-04-01T16:27:38.163Z</time></trkpt><trkpt lat="43.9039777" lon="12.8960421"><ele>6.666666666666667</ele><time>2026-04-01T16:27:41.174Z</time></trkpt><trkpt lat="43.9040471" lon="12.8960233"><ele>7.0</ele><time>2026-04-01T16:27:43.17Z</time></trkpt><trkpt lat="43.9041293" lon="12.8959806"><ele>7.0</ele><time>2026-04-01T16:27:46.171Z</time></trkpt><trkpt lat="43.9041983" lon="12.8959311"><ele>7.0</ele><time>2026-04-01T16:27:49.17Z</time></trkpt><trkpt lat="43.9042622" lon="12.8958775"><ele>7.0</ele><time>2026-04-01T16:27:52.162Z</time></trkpt><trkpt lat="43.9043131" lon="12.8958134"><ele>7.0</ele><time>2026-04-01T16:27:55.169Z</time></trkpt><trkpt lat="43.9043731" lon="12.8957524"><ele>7.0</ele><time>2026-04-01T16:27:58.168Z</time></trkpt><trkpt lat="43.9044212" lon="12.8956757"><ele>7.0</ele><time>2026-04-01T16:28:01.172Z</time></trkpt><trkpt lat="43.9044653" lon="12.8955906"><ele>7.0</ele><time>2026-04-01T16:28:04.177Z</time></trkpt><trkpt lat="43.9045206" lon="12.8955229"><ele>7.000000000000001</ele><time>2026-04-01T16:28:07.178Z</time></trkpt><trkpt lat="43.9045868" lon="12.895454"><ele>7.0</ele><time>2026-04-01T16:28:10.173Z</time></trkpt><trkpt lat="43.9046534" lon="12.8953737"><ele>7.0</ele><time>2026-04-01T16:28:13.164Z</time></trkpt><trkpt lat="43.9046994" lon="12.8952841"><ele>7.0</ele><time>2026-04-01T16:28:16.172Z</time></trkpt><trkpt lat="43.904727" lon="12.8951854"><ele>7.000000000000001</ele><time>2026-04-01T16:28:19.171Z</time></trkpt><trkpt lat="43.9047177" lon="12.8950688"><ele>7.0</ele><time>2026-04-01T16:28:23.165Z</time></trkpt><trkpt lat="43.9046831" lon="12.8949631"><ele>7.000000000000001</ele><time>2026-04-01T16:28:26.157Z</time></trkpt><trkpt lat="43.9046229" lon="12.8948884"><ele>7.0</ele><time>2026-04-01T16:28:29.164Z</time></trkpt><trkpt lat="43.9045572" lon="12.8948098"><ele>7.0</ele><time>2026-04-01T16:28:32.162Z</time></trkpt><trkpt lat="43.9044971" lon="12.8947247"><ele>7.0</ele><time>2026-04-01T16:28:35.168Z</time></trkpt><trkpt lat="43.9044502" lon="12.8946557"><ele>7.000000000000001</ele><time>2026-04-01T16:28:38.176Z</time></trkpt><trkpt lat="43.9043995" lon="12.8946011"><ele>7.0</ele><time>2026-04-01T16:28:41.166Z</time></trkpt><trkpt lat="43.904339" lon="12.8945429"><ele>7.0</ele><time>2026-04-01T16:28:44.169Z</time></trkpt><trkpt lat="43.904283" lon="12.894461"><ele>7.0</ele><time>2026-04-01T16:28:47.169Z</time></trkpt><trkpt lat="43.904229" lon="12.8943812"><ele>7.0</ele><time>2026-04-01T16:28:50.17Z</time></trkpt><trkpt lat="43.904181" lon="12.8943082"><ele>7.0</ele><time>2026-04-01T16:28:53.156Z</time></trkpt><trkpt lat="43.9041242" lon="12.8942295"><ele>7.0</ele><time>2026-04-01T16:28:57.166Z</time></trkpt><trkpt lat="43.9040727" lon="12.8941655"><ele>7.0</ele><time>2026-04-01T16:29:00.171Z</time></trkpt><trkpt lat="43.9040304" lon="12.8940924"><ele>7.0</ele><time>2026-04-01T16:29:03.171Z</time></trkpt><trkpt lat="43.9039734" lon="12.8940014"><ele>6.666666666666667</ele><time>2026-04-01T16:29:06.172Z</time></trkpt><trkpt lat="43.9039113" lon="12.8939316"><ele>6.333333333333334</ele><time>2026-04-01T16:29:09.162Z</time></trkpt><trkpt lat="43.9038435" lon="12.8938411"><ele>6.0</ele><time>2026-04-01T16:29:12.159Z</time></trkpt><trkpt lat="43.9037883" lon="12.8937734"><ele>5.666666666666667</ele><time>2026-04-01T16:29:14.172Z</time></trkpt><trkpt lat="43.9037364" lon="12.8937179"><ele>5.333333333333334</ele><time>2026-04-01T16:29:16.167Z</time></trkpt><trkpt lat="43.9036671" lon="12.89365"><ele>5.0</ele><time>2026-04-01T16:29:19.167Z</time></trkpt><trkpt lat="43.9035949" lon="12.8935945"><ele>5.0</ele><time>2026-04-01T16:29:22.165Z</time></trkpt><trkpt lat="43.9035136" lon="12.8936251"><ele>5.0</ele><time>2026-04-01T16:29:26.162Z</time></trkpt><trkpt lat="43.9034603" lon="12.8936993"><ele>5.0</ele><time>2026-04-01T16:29:29.186Z</time></trkpt><trkpt lat="43.9034173" lon="12.8937743"><ele>5.0</ele><time>2026-04-01T16:29:32.161Z</time></trkpt><trkpt lat="43.9033579" lon="12.893851"><ele>5.0</ele><time>2026-04-01T16:29:36.158Z</time></trkpt><trkpt lat="43.9033044" lon="12.8939271"><ele>5.0</ele><time>2026-04-01T16:29:39.152Z</time></trkpt><trkpt lat="43.9032541" lon="12.8940074"><ele>4.666666666666667</ele><time>2026-04-01T16:29:42.16Z</time></trkpt><trkpt lat="43.9032064" lon="12.8940925"><ele>4.333333333333334</ele><time>2026-04-01T16:29:45.158Z</time></trkpt><trkpt lat="43.9031527" lon="12.8941653"><ele>4.0</ele><time>2026-04-01T16:29:48.155Z</time></trkpt><trkpt lat="43.9030883" lon="12.894263"><ele>3.666666666666667</ele><time>2026-04-01T16:29:51.154Z</time></trkpt><trkpt lat="43.9030255" lon="12.8943454"><ele>3.3333333333333335</ele><time>2026-04-01T16:29:54.162Z</time></trkpt><trkpt lat="43.9029625" lon="12.8944234"><ele>3.0</ele><time>2026-04-01T16:29:57.16Z</time></trkpt><trkpt lat="43.9029193" lon="12.8944877"><ele>2.8333333333333335</ele><time>2026-04-01T16:29:59.157Z</time></trkpt><trkpt lat="43.9028674" lon="12.8945909"><ele>2.6666666666666665</ele><time>2026-04-01T16:30:02.155Z</time></trkpt><trkpt lat="43.9028331" lon="12.8946794"><ele>2.5</ele><time>2026-04-01T16:30:04.16Z</time></trkpt><trkpt lat="43.9028037" lon="12.894797"><ele>2.333333333333333</ele><time>2026-04-01T16:30:07.164Z</time></trkpt><trkpt lat="43.9027831" lon="12.8948824"><ele>2.1666666666666665</ele><time>2026-04-01T16:30:09.157Z</time></trkpt><trkpt lat="43.9027825" lon="12.8949935"><ele>2.0</ele><time>2026-04-01T16:30:12.16Z</time></trkpt><trkpt lat="43.9028421" lon="12.895077"><ele>2.4285714285714284</ele><time>2026-04-01T16:30:16.158Z</time></trkpt><trkpt lat="43.9028972" lon="12.8951303"><ele>2.8571428571428568</ele><time>2026-04-01T16:30:19.157Z</time></trkpt><trkpt lat="43.9029457" lon="12.8951864"><ele>3.2857142857142856</ele><time>2026-04-01T16:30:21.153Z</time></trkpt><trkpt lat="43.9030044" lon="12.8952739"><ele>3.7142857142857144</ele><time>2026-04-01T16:30:24.151Z</time></trkpt><trkpt lat="43.9030592" lon="12.8953279"><ele>4.142857142857143</ele><time>2026-04-01T16:30:26.151Z</time></trkpt><trkpt lat="43.903132" lon="12.8953543"><ele>4.571428571428571</ele><time>2026-04-01T16:30:28.154Z</time></trkpt><trkpt lat="43.9031823" lon="12.8954084"><ele>5.0</ele><time>2026-04-01T16:30:30.152Z</time></trkpt><trkpt lat="43.9032266" lon="12.8955015"><ele>5.0</ele><time>2026-04-01T16:30:34.149Z</time></trkpt><trkpt lat="43.9032704" lon="12.8955802"><ele>5.0</ele><time>2026-04-01T16:30:37.152Z</time></trkpt><trkpt lat="43.9033193" lon="12.8956653"><ele>5.0</ele><time>2026-04-01T16:30:40.154Z</time></trkpt><trkpt lat="43.9033851" lon="12.8957376"><ele>5.0</ele><time>2026-04-01T16:30:43.153Z</time></trkpt><trkpt lat="43.9034402" lon="12.8958136"><ele>5.0</ele><time>2026-04-01T16:30:46.143Z</time></trkpt><trkpt lat="43.9035044" lon="12.8958826"><ele>5.0</ele><time>2026-04-01T16:30:49.163Z</time></trkpt><trkpt lat="43.9035794" lon="12.895945"><ele>5.333333333333334</ele><time>2026-04-01T16:30:52.154Z</time></trkpt><trkpt lat="43.9036373" lon="12.8959794"><ele>5.666666666666667</ele><time>2026-04-01T16:30:54.145Z</time></trkpt><trkpt lat="43.9037158" lon="12.8959992"><ele>6.0</ele><time>2026-04-01T16:30:57.149Z</time></trkpt><trkpt lat="43.9037849" lon="12.8959979"><ele>6.333333333333334</ele><time>2026-04-01T16:31:00.15Z</time></trkpt><trkpt lat="43.9038632" lon="12.8959942"><ele>6.666666666666667</ele><time>2026-04-01T16:31:03.172Z</time></trkpt><trkpt lat="43.9039535" lon="12.8960171"><ele>7.0</ele><time>2026-04-01T16:31:06.154Z</time></trkpt><trkpt lat="43.9040223" lon="12.8960225"><ele>7.000000000000001</ele><time>2026-04-01T16:31:08.151Z</time></trkpt><trkpt lat="43.9041041" lon="12.8960206"><ele>7.0</ele><time>2026-04-01T16:31:11.154Z</time></trkpt><trkpt lat="43.9041721" lon="12.8959812"><ele>7.0</ele><time>2026-04-01T16:31:14.153Z</time></trkpt><trkpt lat="43.9042373" lon="12.89594"><ele>7.0</ele><time>2026-04-01T16:31:17.155Z</time></trkpt><trkpt lat="43.904318" lon="12.8958883"><ele>7.000000000000001</ele><time>2026-04-01T16:31:20.152Z</time></trkpt><trkpt lat="43.9043904" lon="12.8958199"><ele>7.0</ele><time>2026-04-01T16:31:23.14Z</time></trkpt><trkpt lat="43.9044638" lon="12.8957738"><ele>7.142857142857142</ele><time>2026-04-01T16:31:26.137Z</time></trkpt><trkpt lat="43.9045205" lon="12.8957171"><ele>7.285714285714286</ele><time>2026-04-01T16:31:28.142Z</time></trkpt><trkpt lat="43.9045657" lon="12.8956319"><ele>7.428571428571429</ele><time>2026-04-01T16:31:30.149Z</time></trkpt><trkpt lat="43.9046141" lon="12.8955518"><ele>7.571428571428571</ele><time>2026-04-01T16:31:33.166Z</time></trkpt><trkpt lat="43.9046558" lon="12.895482"><ele>7.7142857142857135</ele><time>2026-04-01T16:31:36.143Z</time></trkpt><trkpt lat="43.9047016" lon="12.8953995"><ele>7.857142857142857</ele><time>2026-04-01T16:31:39.149Z</time></trkpt><trkpt lat="43.9047346" lon="12.895295"><ele>8.0</ele><time>2026-04-01T16:31:42.146Z</time></trkpt><trkpt lat="43.9047435" lon="12.8951804"><ele>7.833333333333333</ele><time>2026-04-01T16:31:45.149Z</time></trkpt><trkpt lat="43.9047193" lon="12.8950649"><ele>7.666666666666666</ele><time>2026-04-01T16:31:48.148Z</time></trkpt><trkpt lat="43.9046776" lon="12.8949704"><ele>7.5</ele><time>2026-04-01T16:31:51.148Z</time></trkpt><trkpt lat="43.9046183" lon="12.8948792"><ele>7.333333333333334</ele><time>2026-04-01T16:31:54.146Z</time></trkpt><trkpt lat="43.9045515" lon="12.8947981"><ele>7.166666666666667</ele><time>2026-04-01T16:31:57.143Z</time></trkpt><trkpt lat="43.9044846" lon="12.8947262"><ele>7.0</ele><time>2026-04-01T16:32:00.148Z</time></trkpt><trkpt lat="43.9044249" lon="12.8946431"><ele>7.000000000000001</ele><time>2026-04-01T16:32:03.15Z</time></trkpt><trkpt lat="43.904363" lon="12.8945631"><ele>7.0</ele><time>2026-04-01T16:32:06.15Z</time></trkpt><trkpt lat="43.9043077" lon="12.894495"><ele>7.0</ele><time>2026-04-01T16:32:09.149Z</time></trkpt><trkpt lat="43.9042528" lon="12.8944147"><ele>7.0</ele><time>2026-04-01T16:32:12.151Z</time></trkpt><trkpt lat="43.9042014" lon="12.8943368"><ele>7.000000000000001</ele><time>2026-04-01T16:32:15.145Z</time></trkpt><trkpt lat="43.9041465" lon="12.8942644"><ele>7.0</ele><time>2026-04-01T16:32:18.15Z</time></trkpt><trkpt lat="43.9040854" lon="12.8941908"><ele>6.666666666666667</ele><time>2026-04-01T16:32:21.151Z</time></trkpt><trkpt lat="43.9040273" lon="12.8941141"><ele>6.333333333333334</ele><time>2026-04-01T16:32:24.15Z</time></trkpt><trkpt lat="43.9039688" lon="12.8940403"><ele>6.0</ele><time>2026-04-01T16:32:27.143Z</time></trkpt><trkpt lat="43.9039133" lon="12.8939547"><ele>5.666666666666667</ele><time>2026-04-01T16:32:30.141Z</time></trkpt><trkpt lat="43.9038557" lon="12.8938869"><ele>5.333333333333334</ele><time>2026-04-01T16:32:33.144Z</time></trkpt><trkpt lat="43.9037964" lon="12.8938142"><ele>5.0</ele><time>2026-04-01T16:32:36.158Z</time></trkpt><trkpt lat="43.9037486" lon="12.8937486"><ele>5.0</ele><time>2026-04-01T16:32:38.148Z</time></trkpt><trkpt lat="43.9037015" lon="12.8936852"><ele>5.0</ele><time>2026-04-01T16:32:40.148Z</time></trkpt><trkpt lat="43.9036391" lon="12.8936119"><ele>5.0</ele><time>2026-04-01T16:32:43.155Z</time></trkpt><trkpt lat="43.9035808" lon="12.8935667"><ele>5.0</ele><time>2026-04-01T16:32:46.152Z</time></trkpt><trkpt lat="43.9035062" lon="12.8936116"><ele>5.0</ele><time>2026-04-01T16:32:50.151Z</time></trkpt><trkpt lat="43.9034578" lon="12.8937011"><ele>5.0</ele><time>2026-04-01T16:32:53.15Z</time></trkpt><trkpt lat="43.9034113" lon="12.8937879"><ele>4.666666666666667</ele><time>2026-04-01T16:32:56.151Z</time></trkpt><trkpt lat="43.9033485" lon="12.893877"><ele>4.333333333333334</ele><time>2026-04-01T16:32:59.159Z</time></trkpt><trkpt lat="43.9032898" lon="12.8939628"><ele>4.0</ele><time>2026-04-01T16:33:02.156Z</time></trkpt><trkpt lat="43.9032322" lon="12.8940562"><ele>3.666666666666667</ele><time>2026-04-01T16:33:05.147Z</time></trkpt><trkpt lat="43.9031826" lon="12.8941326"><ele>3.3333333333333335</ele><time>2026-04-01T16:33:08.151Z</time></trkpt><trkpt lat="43.9031361" lon="12.8942072"><ele>3.0</ele><time>2026-04-01T16:33:11.14Z</time></trkpt><trkpt lat="43.9030767" lon="12.8942919"><ele>2.8333333333333335</ele><time>2026-04-01T16:33:14.145Z</time></trkpt><trkpt lat="43.9030125" lon="12.8943768"><ele>2.6666666666666665</ele><time>2026-04-01T16:33:17.146Z</time></trkpt><trkpt lat="43.9029675" lon="12.8944419"><ele>2.5</ele><time>2026-04-01T16:33:19.145Z</time></trkpt><trkpt lat="43.902912" lon="12.8945238"><ele>2.333333333333333</ele><time>2026-04-01T16:33:22.152Z</time></trkpt><trkpt lat="43.9028602" lon="12.8946068"><ele>2.1666666666666665</ele><time>2026-04-01T16:33:25.146Z</time></trkpt><trkpt lat="43.9028277" lon="12.8947219"><ele>2.0</ele><time>2026-04-01T16:33:28.156Z</time></trkpt><trkpt lat="43.9028033" lon="12.8948466"><ele>1.9999999999999998</ele><time>2026-04-01T16:33:31.156Z</time></trkpt><trkpt lat="43.9028172" lon="12.8949523"><ele>2.0</ele><time>2026-04-01T16:33:34.148Z</time></trkpt><trkpt lat="43.9028584" lon="12.8950348"><ele>2.0</ele><time>2026-04-01T16:33:37.169Z</time></trkpt><trkpt lat="43.902903" lon="12.8951182"><ele>2.0</ele><time>2026-04-01T16:33:40.145Z</time></trkpt><trkpt lat="43.9029553" lon="12.8951931"><ele>1.9999999999999998</ele><time>2026-04-01T16:33:43.147Z</time></trkpt><trkpt lat="43.9030212" lon="12.8952898"><ele>2.0</ele><time>2026-04-01T16:33:46.14Z</time></trkpt><trkpt lat="43.9030834" lon="12.8953353"><ele>2.5</ele><time>2026-04-01T16:33:48.148Z</time></trkpt><trkpt lat="43.9031608" lon="12.8954141"><ele>3.0</ele><time>2026-04-01T16:33:51.142Z</time></trkpt><trkpt lat="43.9032061" lon="12.8954839"><ele>3.5</ele><time>2026-04-01T16:33:54.157Z</time></trkpt><trkpt lat="43.9032541" lon="12.8955586"><ele>4.0</ele><time>2026-04-01T16:33:57.157Z</time></trkpt><trkpt lat="43.9033109" lon="12.8956446"><ele>4.5</ele><time>2026-04-01T16:34:00.153Z</time></trkpt><trkpt lat="43.9033712" lon="12.8957286"><ele>5.0</ele><time>2026-04-01T16:34:03.145Z</time></trkpt><trkpt lat="43.9034358" lon="12.8958082"><ele>5.333333333333334</ele><time>2026-04-01T16:34:06.144Z</time></trkpt><trkpt lat="43.9034933" lon="12.8958896"><ele>5.666666666666667</ele><time>2026-04-01T16:34:09.159Z</time></trkpt><trkpt lat="43.903574" lon="12.895954"><ele>6.0</ele><time>2026-04-01T16:34:12.146Z</time></trkpt><trkpt lat="43.903659" lon="12.8959899"><ele>6.333333333333334</ele><time>2026-04-01T16:34:15.148Z</time></trkpt><trkpt lat="43.9037359" lon="12.8960063"><ele>6.666666666666667</ele><time>2026-04-01T16:34:18.14Z</time></trkpt><trkpt lat="43.9038085" lon="12.8960061"><ele>7.0</ele><time>2026-04-01T16:34:20.969Z</time></trkpt><trkpt lat="43.9038871" lon="12.8960159"><ele>7.000000000000001</ele><time>2026-04-01T16:34:23.961Z</time></trkpt><trkpt lat="43.9039691" lon="12.8960396"><ele>7.0</ele><time>2026-04-01T16:34:26.97Z</time></trkpt><trkpt lat="43.9040331" lon="12.8960354"><ele>7.0</ele><time>2026-04-01T16:34:28.979Z</time></trkpt><trkpt lat="43.9041078" lon="12.8960054"><ele>7.0</ele><time>2026-04-01T16:34:31.974Z</time></trkpt><trkpt lat="43.9041746" lon="12.8959488"><ele>7.000000000000001</ele><time>2026-04-01T16:34:35.969Z</time></trkpt><trkpt lat="43.9042484" lon="12.8958915"><ele>7.0</ele><time>2026-04-01T16:34:38.987Z</time></trkpt><trkpt lat="43.9043224" lon="12.8958267"><ele>7.166666666666667</ele><time>2026-04-01T16:34:41.965Z</time></trkpt><trkpt lat="43.9043776" lon="12.8957771"><ele>7.333333333333334</ele><time>2026-04-01T16:34:43.974Z</time></trkpt><trkpt lat="43.9044411" lon="12.8957004"><ele>7.5</ele><time>2026-04-01T16:34:46.969Z</time></trkpt><trkpt lat="43.9045018" lon="12.8956163"><ele>7.666666666666666</ele><time>2026-04-01T16:34:49.971Z</time></trkpt><trkpt lat="43.9045655" lon="12.8955338"><ele>7.833333333333333</ele><time>2026-04-01T16:34:52.958Z</time></trkpt><trkpt lat="43.9046261" lon="12.8954575"><ele>8.0</ele><time>2026-04-01T16:34:55.958Z</time></trkpt><trkpt lat="43.9046701" lon="12.8953671"><ele>7.999999999999999</ele><time>2026-04-01T16:34:58.963Z</time></trkpt><trkpt lat="43.9047053" lon="12.895271"><ele>8.0</ele><time>2026-04-01T16:35:01.963Z</time></trkpt><trkpt lat="43.9047094" lon="12.895148"><ele>8.0</ele><time>2026-04-01T16:35:04.967Z</time></trkpt><trkpt lat="43.9046827" lon="12.8950324"><ele>8.0</ele><time>2026-04-01T16:35:07.961Z</time></trkpt><trkpt lat="43.9046283" lon="12.894931"><ele>7.999999999999999</ele><time>2026-04-01T16:35:10.974Z</time></trkpt><trkpt lat="43.904582" lon="12.8948642"><ele>8.0</ele><time>2026-04-01T16:35:12.971Z</time></trkpt><trkpt lat="43.9045342" lon="12.8948056"><ele>7.833333333333333</ele><time>2026-04-01T16:35:14.971Z</time></trkpt><trkpt lat="43.9044904" lon="12.894739"><ele>7.666666666666666</ele><time>2026-04-01T16:35:16.97Z</time></trkpt><trkpt lat="43.9044254" lon="12.8946454"><ele>7.5</ele><time>2026-04-01T16:35:19.976Z</time></trkpt><trkpt lat="43.9043635" lon="12.8945585"><ele>7.333333333333334</ele><time>2026-04-01T16:35:22.969Z</time></trkpt><trkpt lat="43.9043021" lon="12.8944847"><ele>7.166666666666667</ele><time>2026-04-01T16:35:25.972Z</time></trkpt><trkpt lat="43.9042379" lon="12.8944122"><ele>7.0</ele><time>2026-04-01T16:35:28.974Z</time></trkpt><trkpt lat="43.9041814" lon="12.8943365"><ele>6.833333333333334</ele><time>2026-04-01T16:35:31.968Z</time></trkpt><trkpt lat="43.9041218" lon="12.8942554"><ele>6.666666666666667</ele><time>2026-04-01T16:35:34.977Z</time></trkpt><trkpt lat="43.904066" lon="12.8941696"><ele>6.5</ele><time>2026-04-01T16:35:37.971Z</time></trkpt><trkpt lat="43.9040107" lon="12.8940964"><ele>6.333333333333334</ele><time>2026-04-01T16:35:40.988Z</time></trkpt><trkpt lat="43.903956" lon="12.8940179"><ele>6.166666666666667</ele><time>2026-04-01T16:35:43.973Z</time></trkpt><trkpt lat="43.9038934" lon="12.8939353"><ele>6.0</ele><time>2026-04-01T16:35:46.972Z</time></trkpt><trkpt lat="43.9038309" lon="12.8938487"><ele>5.833333333333333</ele><time>2026-04-01T16:35:49.974Z</time></trkpt><trkpt lat="43.9037814" lon="12.8937906"><ele>5.666666666666667</ele><time>2026-04-01T16:35:51.973Z</time></trkpt><trkpt lat="43.9037103" lon="12.8937073"><ele>5.5</ele><time>2026-04-01T16:35:54.966Z</time></trkpt><trkpt lat="43.9036438" lon="12.8936346"><ele>5.333333333333334</ele><time>2026-04-01T16:35:57.972Z</time></trkpt><trkpt lat="43.9035682" lon="12.8936019"><ele>5.166666666666667</ele><time>2026-04-01T16:36:00.974Z</time></trkpt><trkpt lat="43.9035016" lon="12.8936594"><ele>5.0</ele><time>2026-04-01T16:36:03.972Z</time></trkpt><trkpt lat="43.9034561" lon="12.8937241"><ele>4.666666666666667</ele><time>2026-04-01T16:36:05.973Z</time></trkpt><trkpt lat="43.9034103" lon="12.8937935"><ele>4.333333333333334</ele><time>2026-04-01T16:36:07.971Z</time></trkpt><trkpt lat="43.9033474" lon="12.8938834"><ele>4.0</ele><time>2026-04-01T16:36:10.987Z</time></trkpt><trkpt lat="43.9032893" lon="12.8939663"><ele>3.666666666666667</ele><time>2026-04-01T16:36:13.97Z</time></trkpt><trkpt lat="43.9032386" lon="12.8940467"><ele>3.3333333333333335</ele><time>2026-04-01T16:36:16.971Z</time></trkpt><trkpt lat="43.9031912" lon="12.8941226"><ele>3.0</ele><time>2026-04-01T16:36:19.973Z</time></trkpt><trkpt lat="43.9031393" lon="12.8941919"><ele>2.8333333333333335</ele><time>2026-04-01T16:36:22.976Z</time></trkpt><trkpt lat="43.903082" lon="12.8942714"><ele>2.6666666666666665</ele><time>2026-04-01T16:36:25.981Z</time></trkpt><trkpt lat="43.9030248" lon="12.8943503"><ele>2.5</ele><time>2026-04-01T16:36:28.97Z</time></trkpt><trkpt lat="43.9029609" lon="12.8944209"><ele>2.333333333333333</ele><time>2026-04-01T16:36:31.981Z</time></trkpt><trkpt lat="43.9029154" lon="12.8944982"><ele>2.1666666666666665</ele><time>2026-04-01T16:36:34.976Z</time></trkpt><trkpt lat="43.9028606" lon="12.8945935"><ele>2.0</ele><time>2026-04-01T16:36:37.973Z</time></trkpt><trkpt lat="43.9028214" lon="12.8947074"><ele>2.0</ele><time>2026-04-01T16:36:40.993Z</time></trkpt><trkpt lat="43.9027971" lon="12.8947931"><ele>1.9999999999999998</ele><time>2026-04-01T16:36:42.979Z</time></trkpt><trkpt lat="43.9028019" lon="12.8948897"><ele>2.0</ele><time>2026-04-01T16:36:45.974Z</time></trkpt><trkpt lat="43.9028419" lon="12.8949887"><ele>2.0</ele><time>2026-04-01T16:36:48.972Z</time></trkpt><trkpt lat="43.9029002" lon="12.8950769"><ele>1.9999999999999998</ele><time>2026-04-01T16:36:51.97Z</time></trkpt><trkpt lat="43.9029379" lon="12.8951484"><ele>2.0</ele><time>2026-04-01T16:36:53.968Z</time></trkpt><trkpt lat="43.9029736" lon="12.8952259"><ele>2.0</ele><time>2026-04-01T16:36:55.969Z</time></trkpt><trkpt lat="43.9030433" lon="12.895304"><ele>2.5</ele><time>2026-04-01T16:36:58.974Z</time></trkpt><trkpt lat="43.9031026" lon="12.8953534"><ele>3.0</ele><time>2026-04-01T16:37:00.977Z</time></trkpt><trkpt lat="43.9031646" lon="12.8954426"><ele>3.5</ele><time>2026-04-01T16:37:03.973Z</time></trkpt><trkpt lat="43.9032193" lon="12.8955164"><ele>4.0</ele><time>2026-04-01T16:37:06.97Z</time></trkpt><trkpt lat="43.9032804" lon="12.8956015"><ele>4.5</ele><time>2026-04-01T16:37:09.97Z</time></trkpt><trkpt lat="43.9033421" lon="12.8956752"><ele>5.0</ele><time>2026-04-01T16:37:12.988Z</time></trkpt><trkpt lat="43.9033932" lon="12.8957659"><ele>5.333333333333334</ele><time>2026-04-01T16:37:15.975Z</time></trkpt><trkpt lat="43.9034469" lon="12.895845"><ele>5.666666666666667</ele><time>2026-04-01T16:37:18.966Z</time></trkpt><trkpt lat="43.9035249" lon="12.8959125"><ele>6.0</ele><time>2026-04-01T16:37:21.969Z</time></trkpt><trkpt lat="43.9035871" lon="12.8959467"><ele>6.333333333333334</ele><time>2026-04-01T16:37:23.977Z</time></trkpt><trkpt lat="43.9036646" lon="12.8959803"><ele>6.666666666666667</ele><time>2026-04-01T16:37:26.971Z</time></trkpt><trkpt lat="43.9037415" lon="12.895987"><ele>7.0</ele><time>2026-04-01T16:37:29.97Z</time></trkpt><trkpt lat="43.9038337" lon="12.8959943"><ele>7.0</ele><time>2026-04-01T16:37:32.968Z</time></trkpt><trkpt lat="43.9039279" lon="12.8960138"><ele>7.0</ele><time>2026-04-01T16:37:35.968Z</time></trkpt><trkpt lat="43.903992" lon="12.8960279"><ele>7.0</ele><time>2026-04-01T16:37:37.967Z</time></trkpt><trkpt lat="43.9040753" lon="12.8960233"><ele>7.0</ele><time>2026-04-01T16:37:40.97Z</time></trkpt><trkpt lat="43.9041331" lon="12.8959788"><ele>7.0</ele><time>2026-04-01T16:37:43.994Z</time></trkpt><trkpt lat="43.9041882" lon="12.8959249"><ele>7.0</ele><time>2026-04-01T16:37:46.962Z</time></trkpt><trkpt lat="43.904251" lon="12.89588"><ele>7.0</ele><time>2026-04-01T16:37:49.962Z</time></trkpt><trkpt lat="43.9043129" lon="12.895822"><ele>7.166666666666667</ele><time>2026-04-01T16:37:52.962Z</time></trkpt><trkpt lat="43.904381" lon="12.8957409"><ele>7.333333333333334</ele><time>2026-04-01T16:37:55.962Z</time></trkpt><trkpt lat="43.9044345" lon="12.8956834"><ele>7.5</ele><time>2026-04-01T16:37:57.963Z</time></trkpt><trkpt lat="43.9044832" lon="12.8956206"><ele>7.666666666666666</ele><time>2026-04-01T16:37:59.962Z</time></trkpt><trkpt lat="43.9045328" lon="12.8955551"><ele>7.833333333333333</ele><time>2026-04-01T16:38:01.96Z</time></trkpt><trkpt lat="43.9046009" lon="12.8954738"><ele>8.0</ele><time>2026-04-01T16:38:04.967Z</time></trkpt><trkpt lat="43.9046528" lon="12.8953894"><ele>7.999999999999999</ele><time>2026-04-01T16:38:07.97Z</time></trkpt><trkpt lat="43.9046826" lon="12.8952878"><ele>8.0</ele><time>2026-04-01T16:38:10.972Z</time></trkpt><trkpt lat="43.9046903" lon="12.8951606"><ele>8.0</ele><time>2026-04-01T16:38:13.98Z</time></trkpt><trkpt lat="43.9046917" lon="12.8950725"><ele>8.0</ele><time>2026-04-01T16:38:15.962Z</time></trkpt><trkpt lat="43.9046479" lon="12.8949775"><ele>7.999999999999999</ele><time>2026-04-01T16:38:18.968Z</time></trkpt><trkpt lat="43.9045757" lon="12.8948953"><ele>8.0</ele><time>2026-04-01T16:38:21.952Z</time></trkpt><trkpt lat="43.9045054" lon="12.8948144"><ele>7.833333333333333</ele><time>2026-04-01T16:38:24.957Z</time></trkpt><trkpt lat="43.904443" lon="12.8947254"><ele>7.666666666666666</ele><time>2026-04-01T16:38:27.957Z</time></trkpt><trkpt lat="43.9043821" lon="12.8946396"><ele>7.5</ele><time>2026-04-01T16:38:30.962Z</time></trkpt><trkpt lat="43.9043343" lon="12.8945796"><ele>7.333333333333334</ele><time>2026-04-01T16:38:32.96Z</time></trkpt><trkpt lat="43.9042863" lon="12.8945192"><ele>7.166666666666667</ele><time>2026-04-01T16:38:34.957Z</time></trkpt><trkpt lat="43.9042409" lon="12.8944564"><ele>7.0</ele><time>2026-04-01T16:38:36.959Z</time></trkpt><trkpt lat="43.9041758" lon="12.8943595"><ele>6.833333333333334</ele><time>2026-04-01T16:38:39.967Z</time></trkpt><trkpt lat="43.9041348" lon="12.894291"><ele>6.666666666666667</ele><time>2026-04-01T16:38:41.965Z</time></trkpt><trkpt lat="43.9040794" lon="12.8942065"><ele>6.5</ele><time>2026-04-01T16:38:44.971Z</time></trkpt><trkpt lat="43.9040219" lon="12.8941205"><ele>6.333333333333334</ele><time>2026-04-01T16:38:47.958Z</time></trkpt><trkpt lat="43.9039621" lon="12.8940418"><ele>6.166666666666667</ele><time>2026-04-01T16:38:50.96Z</time></trkpt><trkpt lat="43.903909" lon="12.8939648"><ele>6.0</ele><time>2026-04-01T16:38:53.959Z</time></trkpt><trkpt lat="43.9038475" lon="12.8938797"><ele>5.833333333333333</ele><time>2026-04-01T16:38:56.963Z</time></trkpt><trkpt lat="43.903783" lon="12.8937958"><ele>5.666666666666667</ele><time>2026-04-01T16:38:59.966Z</time></trkpt><trkpt lat="43.9037171" lon="12.8937173"><ele>5.5</ele><time>2026-04-01T16:39:02.959Z</time></trkpt><trkpt lat="43.9036569" lon="12.8936423"><ele>5.333333333333334</ele><time>2026-04-01T16:39:05.962Z</time></trkpt><trkpt lat="43.9036024" lon="12.8935977"><ele>5.166666666666667</ele><time>2026-04-01T16:39:07.972Z</time></trkpt><trkpt lat="43.9035287" lon="12.8936139"><ele>5.0</ele><time>2026-04-01T16:39:10.978Z</time></trkpt><trkpt lat="43.9034606" lon="12.8937009"><ele>4.666666666666667</ele><time>2026-04-01T16:39:13.96Z</time></trkpt><trkpt lat="43.9034056" lon="12.8937999"><ele>4.333333333333334</ele><time>2026-04-01T16:39:16.97Z</time></trkpt><trkpt lat="43.9033473" lon="12.8938811"><ele>4.0</ele><time>2026-04-01T16:39:19.97Z</time></trkpt><trkpt lat="43.9032963" lon="12.8939673"><ele>3.666666666666667</ele><time>2026-04-01T16:39:22.959Z</time></trkpt><trkpt lat="43.9032335" lon="12.8940584"><ele>3.3333333333333335</ele><time>2026-04-01T16:39:25.962Z</time></trkpt><trkpt lat="43.9031895" lon="12.8941307"><ele>3.0</ele><time>2026-04-01T16:39:27.955Z</time></trkpt><trkpt lat="43.9031317" lon="12.8942112"><ele>2.8333333333333335</ele><time>2026-04-01T16:39:30.955Z</time></trkpt><trkpt lat="43.9030724" lon="12.8942935"><ele>2.6666666666666665</ele><time>2026-04-01T16:39:33.962Z</time></trkpt><trkpt lat="43.9030121" lon="12.8943765"><ele>2.5</ele><time>2026-04-01T16:39:36.965Z</time></trkpt><trkpt lat="43.9029638" lon="12.8944394"><ele>2.333333333333333</ele><time>2026-04-01T16:39:38.966Z</time></trkpt><trkpt lat="43.9029091" lon="12.8945411"><ele>2.1666666666666665</ele><time>2026-04-01T16:39:41.967Z</time></trkpt><trkpt lat="43.9028733" lon="12.8946203"><ele>2.0</ele><time>2026-04-01T16:39:43.96Z</time></trkpt><trkpt lat="43.902824" lon="12.8947268"><ele>1.9999999999999998</ele><time>2026-04-01T16:39:46.98Z</time></trkpt><trkpt lat="43.9027881" lon="12.8948383"><ele>2.0</ele><time>2026-04-01T16:39:49.969Z</time></trkpt><trkpt lat="43.9027829" lon="12.8949472"><ele>2.0</ele><time>2026-04-01T16:39:52.955Z</time></trkpt><trkpt lat="43.9028348" lon="12.8950265"><ele>2.0</ele><time>2026-04-01T16:39:55.951Z</time></trkpt><trkpt lat="43.9028722" lon="12.8950986"><ele>1.9999999999999998</ele><time>2026-04-01T16:39:57.945Z</time></trkpt><trkpt lat="43.9029312" lon="12.8951692"><ele>2.0</ele><time>2026-04-01T16:39:59.942Z</time></trkpt><trkpt lat="43.9029756" lon="12.8952421"><ele>2.5</ele><time>2026-04-01T16:40:01.924Z</time></trkpt><trkpt lat="43.9030395" lon="12.8953211"><ele>3.0</ele><time>2026-04-01T16:40:03.949Z</time></trkpt><trkpt lat="43.9030938" lon="12.8954012"><ele>3.5</ele><time>2026-04-01T16:40:07.939Z</time></trkpt><trkpt lat="43.9031578" lon="12.8954528"><ele>4.0</ele><time>2026-04-01T16:40:10.966Z</time></trkpt><trkpt lat="43.9032096" lon="12.8955026"><ele>4.5</ele><time>2026-04-01T16:40:12.961Z</time></trkpt><trkpt lat="43.9032802" lon="12.8955838"><ele>5.0</ele><time>2026-04-01T16:40:15.962Z</time></trkpt><trkpt lat="43.9033444" lon="12.8956732"><ele>5.0</ele><time>2026-04-01T16:40:18.962Z</time></trkpt><trkpt lat="43.9033894" lon="12.895735"><ele>5.0</ele><time>2026-04-01T16:40:20.962Z</time></trkpt><trkpt lat="43.9034588" lon="12.8957907"><ele>5.0</ele><time>2026-04-01T16:40:23.961Z</time></trkpt><trkpt lat="43.9034989" lon="12.8958703"><ele>5.0</ele><time>2026-04-01T16:40:26.966Z</time></trkpt><trkpt lat="43.9035681" lon="12.8959525"><ele>5.0</ele><time>2026-04-01T16:40:29.959Z</time></trkpt><trkpt lat="43.9036597" lon="12.8959923"><ele>5.0</ele><time>2026-04-01T16:40:32.96Z</time></trkpt><trkpt lat="43.9037239" lon="12.8960027"><ele>5.285714285714286</ele><time>2026-04-01T16:40:35.96Z</time></trkpt><trkpt lat="43.9037906" lon="12.8960215"><ele>5.571428571428571</ele><time>2026-04-01T16:40:38.958Z</time></trkpt><trkpt lat="43.9038689" lon="12.8960271"><ele>5.857142857142858</ele><time>2026-04-01T16:40:41.966Z</time></trkpt><trkpt lat="43.9039395" lon="12.8960304"><ele>6.142857142857142</ele><time>2026-04-01T16:40:44.965Z</time></trkpt><trkpt lat="43.904005" lon="12.89603"><ele>6.428571428571429</ele><time>2026-04-01T16:40:46.968Z</time></trkpt><trkpt lat="43.9040657" lon="12.8960041"><ele>6.714285714285714</ele><time>2026-04-01T16:40:48.979Z</time></trkpt><trkpt lat="43.9041234" lon="12.8959659"><ele>7.0</ele><time>2026-04-01T16:40:50.963Z</time></trkpt><trkpt lat="43.9042037" lon="12.8959081"><ele>7.166666666666667</ele><time>2026-04-01T16:40:53.975Z</time></trkpt><trkpt lat="43.9042843" lon="12.8958376"><ele>7.333333333333334</ele><time>2026-04-01T16:40:56.974Z</time></trkpt><trkpt lat="43.9043634" lon="12.895765"><ele>7.5</ele><time>2026-04-01T16:40:59.957Z</time></trkpt><trkpt lat="43.9044272" lon="12.8956952"><ele>7.666666666666666</ele><time>2026-04-01T16:41:01.962Z</time></trkpt><trkpt lat="43.9044817" lon="12.8956321"><ele>7.833333333333333</ele><time>2026-04-01T16:41:03.965Z</time></trkpt><trkpt lat="43.9045441" lon="12.8955641"><ele>8.0</ele><time>2026-04-01T16:41:05.966Z</time></trkpt><trkpt lat="43.9046004" lon="12.8955033"><ele>7.999999999999999</ele><time>2026-04-01T16:41:07.961Z</time></trkpt><trkpt lat="43.9046516" lon="12.8954458"><ele>8.0</ele><time>2026-04-01T16:41:09.961Z</time></trkpt><trkpt lat="43.9046952" lon="12.8953678"><ele>8.0</ele><time>2026-04-01T16:41:11.963Z</time></trkpt><trkpt lat="43.9047276" lon="12.8952787"><ele>8.0</ele><time>2026-04-01T16:41:13.958Z</time></trkpt><trkpt lat="43.9047387" lon="12.8951861"><ele>7.999999999999999</ele><time>2026-04-01T16:41:15.962Z</time></trkpt><trkpt lat="43.9047177" lon="12.8950667"><ele>8.0</ele><time>2026-04-01T16:41:18.961Z</time></trkpt><trkpt lat="43.9046647" lon="12.894951"><ele>7.857142857142857</ele><time>2026-04-01T16:41:21.964Z</time></trkpt><trkpt lat="43.9046064" lon="12.8948791"><ele>7.7142857142857135</ele><time>2026-04-01T16:41:23.968Z</time></trkpt><trkpt lat="43.9045519" lon="12.8948141"><ele>7.571428571428571</ele><time>2026-04-01T16:41:25.97Z</time></trkpt><trkpt lat="43.9044973" lon="12.894745"><ele>7.428571428571429</ele><time>2026-04-01T16:41:27.966Z</time></trkpt><trkpt lat="43.9044424" lon="12.8946798"><ele>7.285714285714286</ele><time>2026-04-01T16:41:29.968Z</time></trkpt><trkpt lat="43.9043938" lon="12.8946183"><ele>7.142857142857142</ele><time>2026-04-01T16:41:31.968Z</time></trkpt><trkpt lat="43.9043429" lon="12.8945506"><ele>7.0</ele><time>2026-04-01T16:41:33.969Z</time></trkpt><trkpt lat="43.9042932" lon="12.8944847"><ele>6.833333333333334</ele><time>2026-04-01T16:41:35.962Z</time></trkpt><trkpt lat="43.904244" lon="12.8944215"><ele>6.666666666666667</ele><time>2026-04-01T16:41:37.961Z</time></trkpt><trkpt lat="43.9041745" lon="12.894344"><ele>6.5</ele><time>2026-04-01T16:41:40.985Z</time></trkpt><trkpt lat="43.9041336" lon="12.8942753"><ele>6.333333333333334</ele><time>2026-04-01T16:41:42.971Z</time></trkpt><trkpt lat="43.904072" lon="12.8941951"><ele>6.166666666666667</ele><time>2026-04-01T16:41:45.972Z</time></trkpt><trkpt lat="43.9040067" lon="12.8941006"><ele>6.0</ele><time>2026-04-01T16:41:48.971Z</time></trkpt><trkpt lat="43.9039491" lon="12.8939974"><ele>5.833333333333333</ele><time>2026-04-01T16:41:51.972Z</time></trkpt><trkpt lat="43.9039047" lon="12.8939181"><ele>5.666666666666667</ele><time>2026-04-01T16:41:53.971Z</time></trkpt><trkpt lat="43.9038442" lon="12.8938366"><ele>5.5</ele><time>2026-04-01T16:41:56.967Z</time></trkpt><trkpt lat="43.9037832" lon="12.893754"><ele>5.333333333333334</ele><time>2026-04-01T16:41:59.977Z</time></trkpt><trkpt lat="43.9037358" lon="12.8936925"><ele>5.166666666666667</ele><time>2026-04-01T16:42:01.98Z</time></trkpt><trkpt lat="43.9036858" lon="12.8936372"><ele>5.0</ele><time>2026-04-01T16:42:03.978Z</time></trkpt><trkpt lat="43.9036061" lon="12.8935894"><ele>5.0</ele><time>2026-04-01T16:42:06.983Z</time></trkpt><trkpt lat="43.9035467" lon="12.8936216"><ele>5.0</ele><time>2026-04-01T16:42:08.983Z</time></trkpt><trkpt lat="43.9035031" lon="12.8936957"><ele>5.0</ele><time>2026-04-01T16:42:10.974Z</time></trkpt><trkpt lat="43.903459" lon="12.8937798"><ele>5.0</ele><time>2026-04-01T16:42:12.96Z</time></trkpt><trkpt lat="43.9034142" lon="12.8938525"><ele>5.0</ele><time>2026-04-01T16:42:14.962Z</time></trkpt><trkpt lat="43.9033635" lon="12.8939138"><ele>5.0</ele><time>2026-04-01T16:42:19.959Z</time></trkpt><trkpt lat="43.9033291" lon="12.8939938"><ele>5.0</ele><time>2026-04-01T16:42:21.963Z</time></trkpt><trkpt lat="43.9032728" lon="12.8940894"><ele>4.666666666666667</ele><time>2026-04-01T16:42:23.971Z</time></trkpt><trkpt lat="43.9032155" lon="12.8941653"><ele>4.333333333333334</ele><time>2026-04-01T16:42:25.967Z</time></trkpt><trkpt lat="43.9031664" lon="12.8942366"><ele>4.0</ele><time>2026-04-01T16:42:27.971Z</time></trkpt><trkpt lat="43.9031137" lon="12.8943305"><ele>3.666666666666667</ele><time>2026-04-01T16:42:29.959Z</time></trkpt><trkpt lat="43.9030672" lon="12.8944268"><ele>3.3333333333333335</ele><time>2026-04-01T16:42:31.964Z</time></trkpt><trkpt lat="43.9030184" lon="12.8945007"><ele>3.0</ele><time>2026-04-01T16:42:33.969Z</time></trkpt><trkpt lat="43.9029543" lon="12.8945974"><ele>2.8333333333333335</ele><time>2026-04-01T16:42:36.966Z</time></trkpt><trkpt lat="43.9029015" lon="12.8947015"><ele>2.6666666666666665</ele><time>2026-04-01T16:42:39.965Z</time></trkpt><trkpt lat="43.9028539" lon="12.894799"><ele>2.5</ele><time>2026-04-01T16:42:42.969Z</time></trkpt><trkpt lat="43.902811" lon="12.894905"><ele>2.333333333333333</ele><time>2026-04-01T16:42:45.97Z</time></trkpt><trkpt lat="43.9028264" lon="12.8950093"><ele>2.1666666666666665</ele><time>2026-04-01T16:42:48.969Z</time></trkpt><trkpt lat="43.9028899" lon="12.8951017"><ele>2.0</ele><time>2026-04-01T16:42:51.985Z</time></trkpt><trkpt lat="43.9029358" lon="12.8951751"><ele>2.4285714285714284</ele><time>2026-04-01T16:42:53.973Z</time></trkpt><trkpt lat="43.9029924" lon="12.8952357"><ele>2.8571428571428568</ele><time>2026-04-01T16:42:55.974Z</time></trkpt><trkpt lat="43.9030532" lon="12.8952915"><ele>3.2857142857142856</ele><time>2026-04-01T16:42:57.954Z</time></trkpt><trkpt lat="43.9031121" lon="12.895343"><ele>3.7142857142857144</ele><time>2026-04-01T16:42:59.963Z</time></trkpt><trkpt lat="43.9031661" lon="12.8953978"><ele>4.142857142857143</ele><time>2026-04-01T16:43:01.958Z</time></trkpt><trkpt lat="43.9032221" lon="12.8954729"><ele>4.571428571428571</ele><time>2026-04-01T16:43:04.972Z</time></trkpt><trkpt lat="43.9032758" lon="12.8955606"><ele>5.0</ele><time>2026-04-01T16:43:07.961Z</time></trkpt><trkpt lat="43.9033366" lon="12.8956421"><ele>5.0</ele><time>2026-04-01T16:43:10.977Z</time></trkpt><trkpt lat="43.9034115" lon="12.8957348"><ele>5.0</ele><time>2026-04-01T16:43:13.973Z</time></trkpt><trkpt lat="43.903469" lon="12.8958042"><ele>5.0</ele><time>2026-04-01T16:43:15.968Z</time></trkpt><trkpt lat="43.9035289" lon="12.8958662"><ele>5.0</ele><time>2026-04-01T16:43:17.965Z</time></trkpt><trkpt lat="43.9035884" lon="12.8959219"><ele>5.0</ele><time>2026-04-01T16:43:19.962Z</time></trkpt><trkpt lat="43.903671" lon="12.8959611"><ele>5.0</ele><time>2026-04-01T16:43:22.987Z</time></trkpt><trkpt lat="43.9037648" lon="12.8959853"><ele>5.333333333333334</ele><time>2026-04-01T16:43:25.965Z</time></trkpt><trkpt lat="43.9038359" lon="12.895991"><ele>5.666666666666667</ele><time>2026-04-01T16:43:27.967Z</time></trkpt><trkpt lat="43.9039342" lon="12.8960059"><ele>6.0</ele><time>2026-04-01T16:43:30.959Z</time></trkpt><trkpt lat="43.9039966" lon="12.8960273"><ele>6.333333333333334</ele><time>2026-04-01T16:43:32.944Z</time></trkpt><trkpt lat="43.9040841" lon="12.8960226"><ele>6.666666666666667</ele><time>2026-04-01T16:43:35.956Z</time></trkpt><trkpt lat="43.9041457" lon="12.8959816"><ele>7.0</ele><time>2026-04-01T16:43:37.953Z</time></trkpt><trkpt lat="43.9042236" lon="12.8959518"><ele>7.142857142857142</ele><time>2026-04-01T16:43:39.954Z</time></trkpt><trkpt lat="43.904284" lon="12.8959074"><ele>7.285714285714286</ele><time>2026-04-01T16:43:41.957Z</time></trkpt><trkpt lat="43.9043345" lon="12.89585"><ele>7.428571428571429</ele><time>2026-04-01T16:43:43.961Z</time></trkpt><trkpt lat="43.9043963" lon="12.8957531"><ele>7.571428571428571</ele><time>2026-04-01T16:43:46.958Z</time></trkpt><trkpt lat="43.9044377" lon="12.8956858"><ele>7.7142857142857135</ele><time>2026-04-01T16:43:48.966Z</time></trkpt><trkpt lat="43.9044825" lon="12.895607"><ele>7.857142857142857</ele><time>2026-04-01T16:43:50.957Z</time></trkpt><trkpt lat="43.9045289" lon="12.8955302"><ele>8.0</ele><time>2026-04-01T16:43:52.959Z</time></trkpt><trkpt lat="43.9045738" lon="12.8954553"><ele>7.999999999999999</ele><time>2026-04-01T16:43:54.958Z</time></trkpt><trkpt lat="43.9046166" lon="12.8953813"><ele>8.0</ele><time>2026-04-01T16:43:56.957Z</time></trkpt><trkpt lat="43.904654" lon="12.8952834"><ele>8.0</ele><time>2026-04-01T16:43:58.961Z</time></trkpt><trkpt lat="43.9046854" lon="12.8951665"><ele>8.0</ele><time>2026-04-01T16:44:01.956Z</time></trkpt><trkpt lat="43.9046706" lon="12.8950486"><ele>7.999999999999999</ele><time>2026-04-01T16:44:04.958Z</time></trkpt><trkpt lat="43.9046348" lon="12.8949547"><ele>8.0</ele><time>2026-04-01T16:44:07.967Z</time></trkpt><trkpt lat="43.9045645" lon="12.8948729"><ele>7.833333333333333</ele><time>2026-04-01T16:44:10.976Z</time></trkpt><trkpt lat="43.9045124" lon="12.8948124"><ele>7.666666666666666</ele><time>2026-04-01T16:44:12.968Z</time></trkpt><trkpt lat="43.9044542" lon="12.8947382"><ele>7.5</ele><time>2026-04-01T16:44:15.968Z</time></trkpt><trkpt lat="43.9044021" lon="12.8946527"><ele>7.333333333333334</ele><time>2026-04-01T16:44:18.965Z</time></trkpt><trkpt lat="43.9043458" lon="12.8945663"><ele>7.166666666666667</ele><time>2026-04-01T16:44:21.967Z</time></trkpt><trkpt lat="43.9042962" lon="12.8944808"><ele>7.0</ele><time>2026-04-01T16:44:24.981Z</time></trkpt><trkpt lat="43.9042496" lon="12.8944189"><ele>6.833333333333334</ele><time>2026-04-01T16:44:26.961Z</time></trkpt><trkpt lat="43.9042072" lon="12.8943525"><ele>6.666666666666667</ele><time>2026-04-01T16:44:28.964Z</time></trkpt><trkpt lat="43.904141" lon="12.8942598"><ele>6.5</ele><time>2026-04-01T16:44:31.961Z</time></trkpt><trkpt lat="43.9040934" lon="12.8941958"><ele>6.333333333333334</ele><time>2026-04-01T16:44:33.965Z</time></trkpt><trkpt lat="43.904046" lon="12.894124"><ele>6.166666666666667</ele><time>2026-04-01T16:44:35.959Z</time></trkpt><trkpt lat="43.9039832" lon="12.8940309"><ele>6.0</ele><time>2026-04-01T16:44:38.962Z</time></trkpt><trkpt lat="43.9039395" lon="12.8939648"><ele>5.857142857142857</ele><time>2026-04-01T16:44:40.975Z</time></trkpt><trkpt lat="43.9038739" lon="12.8938689"><ele>5.714285714285714</ele><time>2026-04-01T16:44:43.966Z</time></trkpt><trkpt lat="43.9038273" lon="12.8938089"><ele>5.571428571428571</ele><time>2026-04-01T16:44:45.971Z</time></trkpt><trkpt lat="43.9037733" lon="12.893745"><ele>5.428571428571429</ele><time>2026-04-01T16:44:47.963Z</time></trkpt><trkpt lat="43.9037187" lon="12.8936744"><ele>5.285714285714286</ele><time>2026-04-01T16:44:49.961Z</time></trkpt><trkpt lat="43.9036704" lon="12.8936042"><ele>5.142857142857142</ele><time>2026-04-01T16:44:51.951Z</time></trkpt><trkpt lat="43.9036046" lon="12.8935599"><ele>5.0</ele><time>2026-04-01T16:44:53.97Z</time></trkpt><trkpt lat="43.9035267" lon="12.8936347"><ele>5.0</ele><time>2026-04-01T16:44:56.961Z</time></trkpt><trkpt lat="43.903476" lon="12.8937143"><ele>5.0</ele><time>2026-04-01T16:44:58.959Z</time></trkpt><trkpt lat="43.9034275" lon="12.8937934"><ele>5.0</ele><time>2026-04-01T16:45:00.966Z</time></trkpt><trkpt lat="43.9033907" lon="12.893868"><ele>5.0</ele><time>2026-04-01T16:45:02.956Z</time></trkpt><trkpt lat="43.9033279" lon="12.8939621"><ele>5.0</ele><time>2026-04-01T16:45:05.962Z</time></trkpt><trkpt lat="43.9032887" lon="12.8940379"><ele>5.0</ele><time>2026-04-01T16:45:07.973Z</time></trkpt><trkpt lat="43.9032397" lon="12.8941166"><ele>4.666666666666667</ele><time>2026-04-01T16:45:10.98Z</time></trkpt><trkpt lat="43.903187" lon="12.8941867"><ele>4.333333333333334</ele><time>2026-04-01T16:45:13.961Z</time></trkpt><trkpt lat="43.9031342" lon="12.8942712"><ele>4.0</ele><time>2026-04-01T16:45:16.974Z</time></trkpt><trkpt lat="43.9030792" lon="12.8943632"><ele>3.666666666666667</ele><time>2026-04-01T16:45:19.96Z</time></trkpt><trkpt lat="43.9030322" lon="12.8944333"><ele>3.3333333333333335</ele><time>2026-04-01T16:45:21.962Z</time></trkpt><trkpt lat="43.90299" lon="12.8945002"><ele>3.0</ele><time>2026-04-01T16:45:23.96Z</time></trkpt><trkpt lat="43.9029342" lon="12.8946081"><ele>2.8333333333333335</ele><time>2026-04-01T16:45:26.987Z</time></trkpt><trkpt lat="43.9028778" lon="12.8947232"><ele>2.6666666666666665</ele><time>2026-04-01T16:45:29.969Z</time></trkpt><trkpt lat="43.9028461" lon="12.8948136"><ele>2.5</ele><time>2026-04-01T16:45:31.958Z</time></trkpt><trkpt lat="43.9028168" lon="12.8949412"><ele>2.333333333333333</ele><time>2026-04-01T16:45:34.963Z</time></trkpt><trkpt lat="43.9028476" lon="12.8950496"><ele>2.1666666666666665</ele><time>2026-04-01T16:45:38.959Z</time></trkpt><trkpt lat="43.9029122" lon="12.8951435"><ele>2.0</ele><time>2026-04-01T16:45:41.954Z</time></trkpt><trkpt lat="43.9029643" lon="12.8952022"><ele>2.5</ele><time>2026-04-01T16:45:43.954Z</time></trkpt><trkpt lat="43.9030327" lon="12.8952746"><ele>3.0</ele><time>2026-04-01T16:45:46.961Z</time></trkpt><trkpt lat="43.9031093" lon="12.8953174"><ele>3.5</ele><time>2026-04-01T16:45:48.955Z</time></trkpt><trkpt lat="43.9031771" lon="12.8954057"><ele>4.0</ele><time>2026-04-01T16:45:51.958Z</time></trkpt><trkpt lat="43.9032216" lon="12.8954765"><ele>4.5</ele><time>2026-04-01T16:45:53.968Z</time></trkpt><trkpt lat="43.903264" lon="12.8955548"><ele>5.0</ele><time>2026-04-01T16:45:55.96Z</time></trkpt><trkpt lat="43.9033217" lon="12.8956571"><ele>5.0</ele><time>2026-04-01T16:45:58.968Z</time></trkpt><trkpt lat="43.9033923" lon="12.8957428"><ele>5.0</ele><time>2026-04-01T16:46:01.967Z</time></trkpt><trkpt lat="43.9034467" lon="12.8958017"><ele>5.0</ele><time>2026-04-01T16:46:03.965Z</time></trkpt><trkpt lat="43.9034986" lon="12.8958661"><ele>5.0</ele><time>2026-04-01T16:46:05.965Z</time></trkpt><trkpt lat="43.9035635" lon="12.895922"><ele>5.0</ele><time>2026-04-01T16:46:07.972Z</time></trkpt><trkpt lat="43.9036268" lon="12.8959576"><ele>5.0</ele><time>2026-04-01T16:46:09.959Z</time></trkpt><trkpt lat="43.9036928" lon="12.8959668"><ele>5.0</ele><time>2026-04-01T16:46:11.966Z</time></trkpt><trkpt lat="43.9037595" lon="12.8959753"><ele>5.333333333333334</ele><time>2026-04-01T16:46:13.955Z</time></trkpt><trkpt lat="43.9038381" lon="12.8959757"><ele>5.666666666666667</ele><time>2026-04-01T16:46:15.965Z</time></trkpt><trkpt lat="43.9039021" lon="12.895987"><ele>6.0</ele><time>2026-04-01T16:46:17.96Z</time></trkpt><trkpt lat="43.9040213" lon="12.8959927"><ele>6.333333333333334</ele><time>2026-04-01T16:46:21.96Z</time></trkpt><trkpt lat="43.9041087" lon="12.8959664"><ele>6.666666666666667</ele><time>2026-04-01T16:46:24.953Z</time></trkpt><trkpt lat="43.9041695" lon="12.8959337"><ele>7.0</ele><time>2026-04-01T16:46:26.938Z</time></trkpt><trkpt lat="43.9042356" lon="12.8958849"><ele>7.166666666666667</ele><time>2026-04-01T16:46:29.941Z</time></trkpt><trkpt lat="43.9043122" lon="12.8958177"><ele>7.333333333333334</ele><time>2026-04-01T16:46:32.955Z</time></trkpt><trkpt lat="43.9043729" lon="12.8957821"><ele>7.5</ele><time>2026-04-01T16:46:34.942Z</time></trkpt><trkpt lat="43.904442" lon="12.8957051"><ele>7.666666666666666</ele><time>2026-04-01T16:46:37.949Z</time></trkpt><trkpt lat="43.9045028" lon="12.8956129"><ele>7.833333333333333</ele><time>2026-04-01T16:46:40.959Z</time></trkpt><trkpt lat="43.9045496" lon="12.8955419"><ele>8.0</ele><time>2026-04-01T16:46:42.955Z</time></trkpt><trkpt lat="43.9046063" lon="12.8954704"><ele>8.0</ele><time>2026-04-01T16:46:44.953Z</time></trkpt><trkpt lat="43.9046543" lon="12.8954019"><ele>7.999999999999999</ele><time>2026-04-01T16:46:46.962Z</time></trkpt><trkpt lat="43.9046942" lon="12.8953169"><ele>8.0</ele><time>2026-04-01T16:46:48.954Z</time></trkpt><trkpt lat="43.9047188" lon="12.8952309"><ele>8.0</ele><time>2026-04-01T16:46:50.953Z</time></trkpt><trkpt lat="43.9047187" lon="12.8951397"><ele>7.999999999999999</ele><time>2026-04-01T16:46:52.958Z</time></trkpt><trkpt lat="43.9047113" lon="12.8950315"><ele>8.0</ele><time>2026-04-01T16:46:54.957Z</time></trkpt><trkpt lat="43.9046798" lon="12.8949152"><ele>8.0</ele><time>2026-04-01T16:46:56.949Z</time></trkpt><trkpt lat="43.9046283" lon="12.8948554"><ele>7.857142857142857</ele><time>2026-04-01T16:46:58.975Z</time></trkpt><trkpt lat="43.9045714" lon="12.8948017"><ele>7.7142857142857135</ele><time>2026-04-01T16:47:00.962Z</time></trkpt><trkpt lat="43.90452" lon="12.8947484"><ele>7.571428571428571</ele><time>2026-04-01T16:47:02.962Z</time></trkpt><trkpt lat="43.9044652" lon="12.8946769"><ele>7.428571428571429</ele><time>2026-04-01T16:47:04.964Z</time></trkpt><trkpt lat="43.9044083" lon="12.8946123"><ele>7.285714285714286</ele><time>2026-04-01T16:47:06.963Z</time></trkpt><trkpt lat="43.9043434" lon="12.8945473"><ele>7.142857142857142</ele><time>2026-04-01T16:47:09.964Z</time></trkpt><trkpt lat="43.904274" lon="12.894473"><ele>7.0</ele><time>2026-04-01T16:47:12.962Z</time></trkpt><trkpt lat="43.9041996" lon="12.8943935"><ele>6.833333333333334</ele><time>2026-04-01T16:47:15.963Z</time></trkpt><trkpt lat="43.9041355" lon="12.8943125"><ele>6.666666666666667</ele><time>2026-04-01T16:47:18.961Z</time></trkpt><trkpt lat="43.9040766" lon="12.8942215"><ele>6.5</ele><time>2026-04-01T16:47:21.96Z</time></trkpt><trkpt lat="43.9040286" lon="12.8941523"><ele>6.333333333333334</ele><time>2026-04-01T16:47:23.967Z</time></trkpt><trkpt lat="43.9039772" lon="12.8940863"><ele>6.166666666666667</ele><time>2026-04-01T16:47:25.96Z</time></trkpt><trkpt lat="43.9039274" lon="12.8940254"><ele>6.0</ele><time>2026-04-01T16:47:27.961Z</time></trkpt><trkpt lat="43.9038738" lon="12.8939604"><ele>5.833333333333333</ele><time>2026-04-01T16:47:29.976Z</time></trkpt><trkpt lat="43.9038203" lon="12.8939032"><ele>5.666666666666667</ele><time>2026-04-01T16:47:31.956Z</time></trkpt><trkpt lat="43.9037684" lon="12.8938419"><ele>5.5</ele><time>2026-04-01T16:47:33.961Z</time></trkpt><trkpt lat="43.9037046" lon="12.8937623"><ele>5.333333333333334</ele><time>2026-04-01T16:47:36.952Z</time></trkpt><trkpt lat="43.9036432" lon="12.8936779"><ele>5.166666666666667</ele><time>2026-04-01T16:47:39.943Z</time></trkpt><trkpt lat="43.903571" lon="12.893642"><ele>5.0</ele><time>2026-04-01T16:47:43.942Z</time></trkpt><trkpt lat="43.9035182" lon="12.8937004"><ele>5.0</ele><time>2026-04-01T16:47:45.947Z</time></trkpt><trkpt lat="43.9034706" lon="12.8938021"><ele>5.0</ele><time>2026-04-01T16:47:47.944Z</time></trkpt><trkpt lat="43.9034112" lon="12.8938985"><ele>5.0</ele><time>2026-04-01T16:47:50.948Z</time></trkpt><trkpt lat="43.9033424" lon="12.893993"><ele>5.0</ele><time>2026-04-01T16:47:53.957Z</time></trkpt><trkpt lat="43.9032985" lon="12.894063"><ele>5.0</ele><time>2026-04-01T16:47:55.956Z</time></trkpt><trkpt lat="43.90325" lon="12.8941302"><ele>5.0</ele><time>2026-04-01T16:47:57.955Z</time></trkpt><trkpt lat="43.9031847" lon="12.8942065"><ele>4.5</ele><time>2026-04-01T16:48:00.97Z</time></trkpt><trkpt lat="43.9031218" lon="12.8942997"><ele>4.0</ele><time>2026-04-01T16:48:03.947Z</time></trkpt><trkpt lat="43.9030838" lon="12.8943704"><ele>3.5</ele><time>2026-04-01T16:48:05.951Z</time></trkpt><trkpt lat="43.9030345" lon="12.8944458"><ele>3.0</ele><time>2026-04-01T16:48:07.956Z</time></trkpt><trkpt lat="43.9029676" lon="12.8945385"><ele>2.5</ele><time>2026-04-01T16:48:10.969Z</time></trkpt><trkpt lat="43.902909" lon="12.8946297"><ele>2.0</ele><time>2026-04-01T16:48:13.966Z</time></trkpt><trkpt lat="43.9028591" lon="12.8947084"><ele>1.9999999999999998</ele><time>2026-04-01T16:48:15.948Z</time></trkpt><trkpt lat="43.9028059" lon="12.8948119"><ele>2.0</ele><time>2026-04-01T16:48:18.942Z</time></trkpt><trkpt lat="43.9027762" lon="12.8948941"><ele>2.0</ele><time>2026-04-01T16:48:20.943Z</time></trkpt><trkpt lat="43.9028164" lon="12.8949921"><ele>2.0</ele><time>2026-04-01T16:48:23.949Z</time></trkpt><trkpt lat="43.9028842" lon="12.8950711"><ele>1.9999999999999998</ele><time>2026-04-01T16:48:25.966Z</time></trkpt><trkpt lat="43.9029333" lon="12.8951338"><ele>2.0</ele><time>2026-04-01T16:48:27.974Z</time></trkpt><trkpt lat="43.9030052" lon="12.8952216"><ele>2.5</ele><time>2026-04-01T16:48:30.96Z</time></trkpt><trkpt lat="43.9030649" lon="12.8952858"><ele>3.0</ele><time>2026-04-01T16:48:32.953Z</time></trkpt><trkpt lat="43.9031172" lon="12.8953424"><ele>3.5</ele><time>2026-04-01T16:48:34.967Z</time></trkpt><trkpt lat="43.9031777" lon="12.8954194"><ele>4.0</ele><time>2026-04-01T16:48:37.96Z</time></trkpt><trkpt lat="43.903235" lon="12.8955026"><ele>4.5</ele><time>2026-04-01T16:48:40.975Z</time></trkpt><trkpt lat="43.903308" lon="12.8955891"><ele>5.0</ele><time>2026-04-01T16:48:43.962Z</time></trkpt><trkpt lat="43.9033579" lon="12.8956587"><ele>5.333333333333334</ele><time>2026-04-01T16:48:45.959Z</time></trkpt><trkpt lat="43.9034273" lon="12.8957499"><ele>5.666666666666667</ele><time>2026-04-01T16:48:48.964Z</time></trkpt><trkpt lat="43.9034862" lon="12.8958342"><ele>6.0</ele><time>2026-04-01T16:48:51.958Z</time></trkpt><trkpt lat="43.9035571" lon="12.8959028"><ele>6.333333333333334</ele><time>2026-04-01T16:48:54.967Z</time></trkpt><trkpt lat="43.9036417" lon="12.8959505"><ele>6.666666666666667</ele><time>2026-04-01T16:48:57.961Z</time></trkpt><trkpt lat="43.9037207" lon="12.8959655"><ele>7.0</ele><time>2026-04-01T16:49:00.963Z</time></trkpt><trkpt lat="43.9038075" lon="12.8959834"><ele>7.000000000000001</ele><time>2026-04-01T16:49:03.945Z</time></trkpt><trkpt lat="43.9038737" lon="12.896006"><ele>7.0</ele><time>2026-04-01T16:49:05.956Z</time></trkpt><trkpt lat="43.9039451" lon="12.896003"><ele>7.0</ele><time>2026-04-01T16:49:07.947Z</time></trkpt><trkpt lat="43.9040197" lon="12.8960028"><ele>7.0</ele><time>2026-04-01T16:49:09.949Z</time></trkpt><trkpt lat="43.904097" lon="12.8959816"><ele>7.000000000000001</ele><time>2026-04-01T16:49:11.957Z</time></trkpt><trkpt lat="43.904155" lon="12.8959377"><ele>7.0</ele><time>2026-04-01T16:49:13.952Z</time></trkpt><trkpt lat="43.9042302" lon="12.8958675"><ele>7.166666666666667</ele><time>2026-04-01T16:49:16.962Z</time></trkpt><trkpt lat="43.9043103" lon="12.895829"><ele>7.333333333333334</ele><time>2026-04-01T16:49:18.964Z</time></trkpt><trkpt lat="43.9043723" lon="12.8957621"><ele>7.5</ele><time>2026-04-01T16:49:21.955Z</time></trkpt><trkpt lat="43.9044351" lon="12.8956746"><ele>7.666666666666666</ele><time>2026-04-01T16:49:24.961Z</time></trkpt><trkpt lat="43.9044852" lon="12.89561"><ele>7.833333333333333</ele><time>2026-04-01T16:49:26.961Z</time></trkpt><trkpt lat="43.9045413" lon="12.8955392"><ele>8.0</ele><time>2026-04-01T16:49:28.963Z</time></trkpt><trkpt lat="43.904595" lon="12.8954695"><ele>7.999999999999999</ele><time>2026-04-01T16:49:30.964Z</time></trkpt><trkpt lat="43.9046516" lon="12.8953977"><ele>8.0</ele><time>2026-04-01T16:49:32.966Z</time></trkpt><trkpt lat="43.9046949" lon="12.8953129"><ele>8.0</ele><time>2026-04-01T16:49:34.963Z</time></trkpt><trkpt lat="43.9047193" lon="12.8952012"><ele>8.0</ele><time>2026-04-01T16:49:36.958Z</time></trkpt><trkpt lat="43.9047103" lon="12.8951145"><ele>7.999999999999999</ele><time>2026-04-01T16:49:38.96Z</time></trkpt><trkpt lat="43.9046901" lon="12.8950295"><ele>8.0</ele><time>2026-04-01T16:49:40.963Z</time></trkpt><trkpt lat="43.904644" lon="12.89492"><ele>7.833333333333333</ele><time>2026-04-01T16:49:43.963Z</time></trkpt><trkpt lat="43.9045755" lon="12.8948413"><ele>7.666666666666666</ele><time>2026-04-01T16:49:46.949Z</time></trkpt><trkpt lat="43.9045006" lon="12.8947738"><ele>7.5</ele><time>2026-04-01T16:49:49.954Z</time></trkpt><trkpt lat="43.9044247" lon="12.8946894"><ele>7.333333333333334</ele><time>2026-04-01T16:49:52.953Z</time></trkpt><trkpt lat="43.9043757" lon="12.8946253"><ele>7.166666666666667</ele><time>2026-04-01T16:49:54.958Z</time></trkpt><trkpt lat="43.9043277" lon="12.8945522"><ele>7.0</ele><time>2026-04-01T16:49:56.965Z</time></trkpt><trkpt lat="43.9042816" lon="12.8944843"><ele>6.857142857142857</ele><time>2026-04-01T16:49:58.953Z</time></trkpt><trkpt lat="43.9042282" lon="12.8944171"><ele>6.714285714285714</ele><time>2026-04-01T16:50:00.958Z</time></trkpt><trkpt lat="43.9041847" lon="12.8943482"><ele>6.571428571428571</ele><time>2026-04-01T16:50:02.966Z</time></trkpt><trkpt lat="43.9041414" lon="12.8942829"><ele>6.428571428571429</ele><time>2026-04-01T16:50:04.985Z</time></trkpt><trkpt lat="43.9040987" lon="12.8942045"><ele>6.285714285714286</ele><time>2026-04-01T16:50:06.966Z</time></trkpt><trkpt lat="43.9040606" lon="12.8941299"><ele>6.142857142857142</ele><time>2026-04-01T16:50:08.959Z</time></trkpt><trkpt lat="43.904014" lon="12.8940519"><ele>6.0</ele><time>2026-04-01T16:50:10.968Z</time></trkpt><trkpt lat="43.903963" lon="12.8939804"><ele>5.833333333333333</ele><time>2026-04-01T16:50:13.962Z</time></trkpt><trkpt lat="43.9039057" lon="12.8939123"><ele>5.666666666666667</ele><time>2026-04-01T16:50:16.966Z</time></trkpt><trkpt lat="43.9038405" lon="12.8938303"><ele>5.5</ele><time>2026-04-01T16:50:19.951Z</time></trkpt><trkpt lat="43.9037703" lon="12.8937488"><ele>5.333333333333334</ele><time>2026-04-01T16:50:22.961Z</time></trkpt><trkpt lat="43.9037007" lon="12.8936626"><ele>5.166666666666667</ele><time>2026-04-01T16:50:25.955Z</time></trkpt><trkpt lat="43.9036239" lon="12.893609"><ele>5.0</ele><time>2026-04-01T16:50:28.968Z</time></trkpt><trkpt lat="43.9035499" lon="12.8936347"><ele>5.0</ele><time>2026-04-01T16:50:31.969Z</time></trkpt><trkpt lat="43.903504" lon="12.8937102"><ele>5.0</ele><time>2026-04-01T16:50:33.965Z</time></trkpt><trkpt lat="43.9034584" lon="12.893796"><ele>5.0</ele><time>2026-04-01T16:50:35.978Z</time></trkpt><trkpt lat="43.9034135" lon="12.893871"><ele>5.0</ele><time>2026-04-01T16:50:37.969Z</time></trkpt><trkpt lat="43.9033683" lon="12.8939372"><ele>5.0</ele><time>2026-04-01T16:50:39.957Z</time></trkpt><trkpt lat="43.903305" lon="12.8940282"><ele>5.0</ele><time>2026-04-01T16:50:42.965Z</time></trkpt><trkpt lat="43.9032479" lon="12.8941067"><ele>4.714285714285714</ele><time>2026-04-01T16:50:45.967Z</time></trkpt><trkpt lat="43.9031902" lon="12.894178"><ele>4.428571428571429</ele><time>2026-04-01T16:50:48.961Z</time></trkpt><trkpt lat="43.9031231" lon="12.8942693"><ele>4.142857142857142</ele><time>2026-04-01T16:50:51.962Z</time></trkpt><trkpt lat="43.9030843" lon="12.8943442"><ele>3.8571428571428568</ele><time>2026-04-01T16:50:53.958Z</time></trkpt><trkpt lat="43.9030408" lon="12.8944131"><ele>3.571428571428571</ele><time>2026-04-01T16:50:55.962Z</time></trkpt><trkpt lat="43.9029914" lon="12.8944899"><ele>3.2857142857142856</ele><time>2026-04-01T16:50:57.958Z</time></trkpt><trkpt lat="43.9029454" lon="12.894562"><ele>3.0</ele><time>2026-04-01T16:50:59.963Z</time></trkpt><trkpt lat="43.9028826" lon="12.8946507"><ele>2.8333333333333335</ele><time>2026-04-01T16:51:02.96Z</time></trkpt><trkpt lat="43.9028426" lon="12.8947275"><ele>2.6666666666666665</ele><time>2026-04-01T16:51:04.957Z</time></trkpt><trkpt lat="43.902805" lon="12.8948166"><ele>2.5</ele><time>2026-04-01T16:51:06.979Z</time></trkpt><trkpt lat="43.9027855" lon="12.8949266"><ele>2.333333333333333</ele><time>2026-04-01T16:51:09.957Z</time></trkpt><trkpt lat="43.9028274" lon="12.8950323"><ele>2.1666666666666665</ele><time>2026-04-01T16:51:12.959Z</time></trkpt><trkpt lat="43.9029019" lon="12.8950988"><ele>2.0</ele><time>2026-04-01T16:51:15.965Z</time></trkpt><trkpt lat="43.9029703" lon="12.8951643"><ele>2.5</ele><time>2026-04-01T16:51:18.967Z</time></trkpt><trkpt lat="43.9030409" lon="12.8952415"><ele>3.0</ele><time>2026-04-01T16:51:21.968Z</time></trkpt><trkpt lat="43.9031029" lon="12.8952897"><ele>3.5</ele><time>2026-04-01T16:51:23.967Z</time></trkpt><trkpt lat="43.903164" lon="12.8953714"><ele>4.0</ele><time>2026-04-01T16:51:26.95Z</time></trkpt><trkpt lat="43.9032029" lon="12.8954404"><ele>4.5</ele><time>2026-04-01T16:51:28.962Z</time></trkpt><trkpt lat="43.9032786" lon="12.8955305"><ele>5.0</ele><time>2026-04-01T16:51:31.957Z</time></trkpt><trkpt lat="43.903337" lon="12.8955893"><ele>5.0</ele><time>2026-04-01T16:51:33.96Z</time></trkpt><trkpt lat="43.9033915" lon="12.8956585"><ele>5.0</ele><time>2026-04-01T16:51:35.964Z</time></trkpt><trkpt lat="43.9034462" lon="12.8957191"><ele>5.0</ele><time>2026-04-01T16:51:37.979Z</time></trkpt><trkpt lat="43.9035078" lon="12.8958079"><ele>5.0</ele><time>2026-04-01T16:51:40.976Z</time></trkpt><trkpt lat="43.9035665" lon="12.8958631"><ele>5.0</ele><time>2026-04-01T16:51:42.975Z</time></trkpt><trkpt lat="43.9036259" lon="12.8959057"><ele>5.0</ele><time>2026-04-01T16:51:44.971Z</time></trkpt><trkpt lat="43.9037072" lon="12.8959243"><ele>5.333333333333334</ele><time>2026-04-01T16:51:47.969Z</time></trkpt><trkpt lat="43.9037854" lon="12.8959294"><ele>5.666666666666667</ele><time>2026-04-01T16:51:50.971Z</time></trkpt><trkpt lat="43.9038481" lon="12.8959471"><ele>6.0</ele><time>2026-04-01T16:51:52.97Z</time></trkpt><trkpt lat="43.9039142" lon="12.8959704"><ele>6.333333333333334</ele><time>2026-04-01T16:51:54.968Z</time></trkpt><trkpt lat="43.9040171" lon="12.8959651"><ele>6.666666666666667</ele><time>2026-04-01T16:51:57.952Z</time></trkpt><trkpt lat="43.904101" lon="12.8959421"><ele>7.0</ele><time>2026-04-01T16:51:59.955Z</time></trkpt><trkpt lat="43.9041637" lon="12.895911"><ele>7.166666666666667</ele><time>2026-04-01T16:52:01.94Z</time></trkpt><trkpt lat="43.9042416" lon="12.8958446"><ele>7.333333333333334</ele><time>2026-04-01T16:52:04.941Z</time></trkpt><trkpt lat="43.9043111" lon="12.8957702"><ele>7.5</ele><time>2026-04-01T16:52:09.953Z</time></trkpt><trkpt lat="43.9043762" lon="12.8957154"><ele>7.666666666666666</ele><time>2026-04-01T16:52:11.944Z</time></trkpt><trkpt lat="43.9044371" lon="12.8956551"><ele>7.833333333333333</ele><time>2026-04-01T16:52:13.948Z</time></trkpt><trkpt lat="43.9044923" lon="12.895588"><ele>8.0</ele><time>2026-04-01T16:52:15.954Z</time></trkpt><trkpt lat="43.9045438" lon="12.8955166"><ele>7.999999999999999</ele><time>2026-04-01T16:52:17.966Z</time></trkpt><trkpt lat="43.9045994" lon="12.89543"><ele>8.0</ele><time>2026-04-01T16:52:19.958Z</time></trkpt><trkpt lat="43.9046513" lon="12.8953476"><ele>8.0</ele><time>2026-04-01T16:52:21.964Z</time></trkpt><trkpt lat="43.9046941" lon="12.8952725"><ele>8.0</ele><time>2026-04-01T16:52:23.964Z</time></trkpt><trkpt lat="43.904702" lon="12.8951412"><ele>7.999999999999999</ele><time>2026-04-01T16:52:26.955Z</time></trkpt><trkpt lat="43.9046946" lon="12.8950376"><ele>8.0</ele><time>2026-04-01T16:52:28.967Z</time></trkpt><trkpt lat="43.9046661" lon="12.8949382"><ele>7.833333333333333</ele><time>2026-04-01T16:52:30.952Z</time></trkpt><trkpt lat="43.9046193" lon="12.8948573"><ele>7.666666666666666</ele><time>2026-04-01T16:52:32.959Z</time></trkpt><trkpt lat="43.9045654" lon="12.8947871"><ele>7.5</ele><time>2026-04-01T16:52:34.959Z</time></trkpt><trkpt lat="43.9045086" lon="12.8947265"><ele>7.333333333333334</ele><time>2026-04-01T16:52:36.955Z</time></trkpt><trkpt lat="43.9044469" lon="12.8946503"><ele>7.166666666666667</ele><time>2026-04-01T16:52:39.973Z</time></trkpt><trkpt lat="43.9043845" lon="12.8945703"><ele>7.0</ele><time>2026-04-01T16:52:42.962Z</time></trkpt><trkpt lat="43.9043338" lon="12.8945141"><ele>7.0</ele><time>2026-04-01T16:52:44.958Z</time></trkpt><trkpt lat="43.9042832" lon="12.8944518"><ele>7.0</ele><time>2026-04-01T16:52:46.959Z</time></trkpt><trkpt lat="43.9042392" lon="12.8943826"><ele>7.0</ele><time>2026-04-01T16:52:48.961Z</time></trkpt><trkpt lat="43.9041958" lon="12.8943119"><ele>7.0</ele><time>2026-04-01T16:52:50.96Z</time></trkpt><trkpt lat="43.9041469" lon="12.8942427"><ele>7.0</ele><time>2026-04-01T16:52:52.966Z</time></trkpt><trkpt lat="43.9040904" lon="12.8941593"><ele>7.0</ele><time>2026-04-01T16:52:54.961Z</time></trkpt><trkpt lat="43.9040398" lon="12.8940976"><ele>7.0</ele><time>2026-04-01T16:52:56.958Z</time></trkpt><trkpt lat="43.9039786" lon="12.8940127"><ele>6.714285714285714</ele><time>2026-04-01T16:52:59.96Z</time></trkpt><trkpt lat="43.9039242" lon="12.8939272"><ele>6.428571428571429</ele><time>2026-04-01T16:53:02.96Z</time></trkpt><trkpt lat="43.9038787" lon="12.8938606"><ele>6.142857142857142</ele><time>2026-04-01T16:53:04.964Z</time></trkpt><trkpt lat="43.9038291" lon="12.8937992"><ele>5.857142857142858</ele><time>2026-04-01T16:53:06.957Z</time></trkpt><trkpt lat="43.9037764" lon="12.8937318"><ele>5.571428571428571</ele><time>2026-04-01T16:53:08.962Z</time></trkpt><trkpt lat="43.9037215" lon="12.8936631"><ele>5.285714285714286</ele><time>2026-04-01T16:53:10.973Z</time></trkpt><trkpt lat="43.9036691" lon="12.893612"><ele>5.0</ele><time>2026-04-01T16:53:12.944Z</time></trkpt><trkpt lat="43.9035989" lon="12.8935974"><ele>5.0</ele><time>2026-04-01T16:53:14.951Z</time></trkpt><trkpt lat="43.9035263" lon="12.8936473"><ele>5.0</ele><time>2026-04-01T16:53:16.95Z</time></trkpt><trkpt lat="43.9034728" lon="12.893718"><ele>5.0</ele><time>2026-04-01T16:53:18.957Z</time></trkpt><trkpt lat="43.903428" lon="12.8937981"><ele>5.0</ele><time>2026-04-01T16:53:20.954Z</time></trkpt><trkpt lat="43.9033847" lon="12.8938849"><ele>5.0</ele><time>2026-04-01T16:53:22.956Z</time></trkpt><trkpt lat="43.9033311" lon="12.8939565"><ele>5.0</ele><time>2026-04-01T16:53:24.959Z</time></trkpt><trkpt lat="43.9032814" lon="12.8940112"><ele>5.0</ele><time>2026-04-01T16:53:26.957Z</time></trkpt><trkpt lat="43.9032308" lon="12.8940713"><ele>4.714285714285714</ele><time>2026-04-01T16:53:28.954Z</time></trkpt><trkpt lat="43.9031821" lon="12.89414"><ele>4.428571428571429</ele><time>2026-04-01T16:53:30.947Z</time></trkpt><trkpt lat="43.9031338" lon="12.8942082"><ele>4.142857142857142</ele><time>2026-04-01T16:53:32.948Z</time></trkpt><trkpt lat="43.9030896" lon="12.8942889"><ele>3.8571428571428568</ele><time>2026-04-01T16:53:34.964Z</time></trkpt><trkpt lat="43.9030403" lon="12.8943712"><ele>3.571428571428571</ele><time>2026-04-01T16:53:36.962Z</time></trkpt><trkpt lat="43.9029973" lon="12.8944351"><ele>3.2857142857142856</ele><time>2026-04-01T16:53:38.958Z</time></trkpt><trkpt lat="43.9029525" lon="12.8945001"><ele>3.0</ele><time>2026-04-01T16:53:40.961Z</time></trkpt><trkpt lat="43.9029037" lon="12.8945912"><ele>2.8333333333333335</ele><time>2026-04-01T16:53:42.961Z</time></trkpt><trkpt lat="43.9028554" lon="12.8946847"><ele>2.6666666666666665</ele><time>2026-04-01T16:53:44.958Z</time></trkpt><trkpt lat="43.9028041" lon="12.8947997"><ele>2.5</ele><time>2026-04-01T16:53:47.94Z</time></trkpt><trkpt lat="43.9027756" lon="12.8948898"><ele>2.333333333333333</ele><time>2026-04-01T16:53:50.932Z</time></trkpt><trkpt lat="43.9028411" lon="12.8949356"><ele>2.1666666666666665</ele><time>2026-04-01T16:53:53.936Z</time></trkpt><trkpt lat="43.9029288" lon="12.8950194"><ele>2.0</ele><time>2026-04-01T16:53:55.933Z</time></trkpt><trkpt lat="43.9029972" lon="12.8951111"><ele>2.5</ele><time>2026-04-01T16:53:57.932Z</time></trkpt><trkpt lat="43.9030622" lon="12.8952078"><ele>3.0</ele><time>2026-04-01T16:53:59.938Z</time></trkpt><trkpt lat="43.9031258" lon="12.8952916"><ele>3.5</ele><time>2026-04-01T16:54:01.936Z</time></trkpt><trkpt lat="43.9031758" lon="12.8953595"><ele>4.0</ele><time>2026-04-01T16:54:03.946Z</time></trkpt><trkpt lat="43.9032229" lon="12.8954443"><ele>4.5</ele><time>2026-04-01T16:54:05.949Z</time></trkpt><trkpt lat="43.9032738" lon="12.8955262"><ele>5.0</ele><time>2026-04-01T16:54:07.944Z</time></trkpt><trkpt lat="43.9033286" lon="12.895602"><ele>5.0</ele><time>2026-04-01T16:54:09.952Z</time></trkpt><trkpt lat="43.9033863" lon="12.8956847"><ele>5.0</ele><time>2026-04-01T16:54:11.953Z</time></trkpt><trkpt lat="43.9034399" lon="12.8957421"><ele>5.0</ele><time>2026-04-01T16:54:13.959Z</time></trkpt><trkpt lat="43.9035003" lon="12.895811"><ele>5.0</ele><time>2026-04-01T16:54:15.947Z</time></trkpt><trkpt lat="43.9035616" lon="12.8958724"><ele>5.0</ele><time>2026-04-01T16:54:17.957Z</time></trkpt><trkpt lat="43.9036311" lon="12.8959284"><ele>5.0</ele><time>2026-04-01T16:54:19.953Z</time></trkpt><trkpt lat="43.903721" lon="12.8959648"><ele>5.333333333333334</ele><time>2026-04-01T16:54:22.952Z</time></trkpt><trkpt lat="43.9037894" lon="12.8959671"><ele>5.666666666666667</ele><time>2026-04-01T16:54:24.961Z</time></trkpt><trkpt lat="43.9038727" lon="12.895975"><ele>6.0</ele><time>2026-04-01T16:54:26.964Z</time></trkpt><trkpt lat="43.9039539" lon="12.8959885"><ele>6.333333333333334</ele><time>2026-04-01T16:54:28.956Z</time></trkpt><trkpt lat="43.9040412" lon="12.8960087"><ele>6.666666666666667</ele><time>2026-04-01T16:54:30.954Z</time></trkpt><trkpt lat="43.9041333" lon="12.8959883"><ele>7.0</ele><time>2026-04-01T16:54:32.952Z</time></trkpt><trkpt lat="43.904207" lon="12.8959475"><ele>7.0</ele><time>2026-04-01T16:54:34.953Z</time></trkpt><trkpt lat="43.9042635" lon="12.8959022"><ele>8.0</ele><time>2026-04-01T16:54:36.951Z</time></trkpt></trkseg></trk></gpx>